Latest Weather Observations for Whyalla

IDS60801

Issued at 5:05 pm CST Saturday 19 April 2014 (issued every 30 minutes, with the page automatically refreshed every 10 minutes)

About weather observations | Map of weather stations | Latest weather observations for SA | Other Formats
Station Details ID: 018120 Name: WHYALLA AERO Lat: -33.05 Lon: 137.52 Height: 6.5 m
Data from the previous 72 hours. | See also: Recent months at Whyalla
Date/Time
CST
Temp
°C
App
Temp
°C
Dew
Point
Rel
Hum
%
Delta-T
°C
Wind Press
QNH
hPa
Press
MSL
hPa
Rain
since 9 am
mm
Dir
 
Spd
km/h
Gust
km/h
Spd
kts
Gust
kts
19/05:00pm 18.3 15.4 8.0 51 5.3 SE 13 20 7 11 1017.7 - 0.0
19/04:30pm 18.5 15.3 8.5 52 5.2 ESE 15 20 8 11 1017.6 - 0.0
19/04:00pm 18.8 15.2 8.5 51 5.3 ESE 17 20 9 11 1017.8 - 0.0
19/03:30pm 19.1 15.5 8.4 50 5.5 ESE 17 22 9 12 1018.0 - 0.0
19/03:00pm 19.3 16.1 8.6 50 5.6 SE 15 20 8 11 1018.2 1018.1 0.0
19/02:30pm 19.2 15.9 8.2 49 5.7 SE 15 20 8 11 1018.4 - 0.0
19/02:00pm 19.1 15.8 8.1 49 5.7 ESE 15 20 8 11 1018.5 - 0.0
19/01:30pm 19.2 16.5 8.8 51 5.4 SE 13 19 7 10 1018.9 - 0.0
19/01:00pm 19.0 16.2 8.6 51 5.4 ESE 13 17 7 9 1019.4 - 0.0
19/12:30pm 18.8 15.8 7.9 49 5.6 ESE 13 17 7 9 1020.2 - 0.0
19/12:00pm 18.8 15.9 8.2 50 5.4 SSE 13 17 7 9 1020.7 1020.6 0.0
19/11:30am 18.2 15.4 8.7 54 4.9 SSE 13 19 7 10 1021.2 - 0.0
19/11:00am 18.1 16.0 8.4 53 5.0 SSE 9 13 5 7 1021.6 - 0.0
19/10:30am 17.8 16.1 8.4 54 4.8 S 7 13 4 7 1021.8 - 0.0
19/10:00am 17.5 15.3 7.8 53 4.9 ESE 9 15 5 8 1022.0 - 0.0
19/09:30am 17.1 15.1 8.5 57 4.4 ESE 9 13 5 7 1022.2 - 0.0
19/09:00am 16.9 15.0 9.1 60 4.0 SE 9 13 5 7 1022.3 1022.2 0.0
19/08:30am 16.3 14.9 9.5 64 3.5 ESE 7 9 4 5 1022.2 - 0.0
19/08:00am 15.6 14.4 10.2 70 2.8 ESE 7 9 4 5 1022.0 - 0.0
19/07:30am 14.7 13.6 10.1 74 2.4 ESE 6 9 3 5 1021.8 - 0.0
19/07:00am 14.1 13.0 10.1 77 2.1 E 6 7 3 4 1021.6 - 0.0
19/06:30am 12.4 11.5 10.5 88 1.0 E 6 7 3 4 1021.5 - 0.0
19/06:00am 9.9 9.6 8.7 92 0.6 CALM 0 7 0 4 1021.2 1021.1 0.0
19/05:30am 10.7 9.2 9.3 91 0.7 NNW 7 11 4 6 1021.1 - 0.0
19/05:00am 12.4 11.8 10.3 87 1.1 SE 4 9 2 5 1021.2 - 0.0
19/04:30am 11.2 9.4 9.3 88 1.0 S 9 11 5 6 1021.1 - 0.0
19/04:00am 10.8 8.9 9.2 90 0.8 W 9 13 5 7 1021.4 - 0.0
19/03:30am 9.7 7.9 8.1 90 0.8 W 7 9 4 5 1021.3 - 0.0
19/03:00am 9.6 7.4 7.9 89 0.8 W 9 11 5 6 1021.7 1021.6 0.0
19/02:30am 10.2 9.0 8.1 87 1.0 S 4 7 2 4 1021.6 - 0.0
19/02:00am 13.8 12.5 9.8 77 2.1 SE 7 11 4 6 1021.8 - 0.0
19/01:30am 14.1 12.8 9.9 76 2.2 ESE 7 11 4 6 1021.9 - 0.0
19/01:00am 14.7 12.6 9.9 73 2.5 ESE 11 13 6 7 1021.9 - 0.0
19/12:30am 15.1 12.7 9.9 71 2.7 ESE 13 17 7 9 1021.8 - 0.0
19/12:00am 15.4 12.5 9.7 69 2.9 ESE 15 20 8 11 1021.8 1021.7 0.0
 
Date/Time
CST
Temp
°C
App
Temp
°C
Dew
Point
Rel
Hum
%
Delta-T
°C
Wind Press
QNH
hPa
Press
MSL
hPa
Rain
since 9 am
mm
Dir
 
Spd
km/h
Gust
km/h
Spd
kts
Gust
kts
18/11:30pm 15.8 12.6 9.9 68 3.1 ESE 17 22 9 12 1022.0 - 0.0
18/11:00pm 15.9 12.8 10.2 69 3.0 ESE 17 24 9 13 1022.3 - 0.0
18/10:30pm 16.1 13.4 10.4 69 3.0 ESE 15 20 8 11 1022.5 - 0.0
18/10:00pm 16.6 13.4 10.0 65 3.5 SE 17 22 9 12 1022.7 - 0.0
18/09:30pm 16.6 14.1 9.8 64 3.6 SE 13 19 7 10 1022.9 - 0.0
18/09:00pm 16.8 14.0 10.0 64 3.6 SE 15 19 8 10 1022.8 1022.7 0.0
18/08:30pm 17.1 14.0 10.2 64 3.7 SSE 17 24 9 13 1022.6 - 0.0
18/08:00pm 17.1 13.7 11.2 68 3.2 S 20 26 11 14 1022.5 - 0.0
18/07:30pm 17.0 13.9 11.5 70 3.0 S 19 26 10 14 1022.5 - 0.0
18/07:00pm 17.2 14.1 11.7 70 3.0 S 19 24 10 13 1022.3 - 0.0
18/06:30pm 17.2 14.1 11.5 69 3.1 S 19 22 10 12 1022.2 - 0.0
18/06:00pm 17.7 13.9 11.3 66 3.5 S 22 32 12 17 1021.9 1021.8 0.0
18/05:30pm 18.1 14.8 11.7 66 3.5 S 20 30 11 16 1021.7 - 0.0
18/05:00pm 18.6 14.3 12.1 66 3.6 S 26 35 14 19 1021.4 - 0.0
18/04:30pm 19.1 15.1 13.1 68 3.4 S 26 35 14 19 1021.4 - 0.0
18/04:00pm 19.8 16.0 13.5 67 3.6 S 26 37 14 20 1021.4 - 0.0
18/03:30pm 20.0 16.4 14.1 69 3.4 S 26 35 14 19 1021.3 - 0.0
18/03:00pm 20.2 16.7 13.4 65 3.9 S 24 35 13 19 1021.2 1021.1 0.0
18/02:30pm 19.9 16.8 13.4 66 3.7 S 22 30 12 16 1021.1 - 0.0
18/02:00pm 20.1 16.9 13.1 64 4.0 S 22 33 12 18 1021.1 - 0.0
18/01:30pm 20.3 16.6 14.0 67 3.6 S 26 33 14 18 1021.1 - 0.0
18/01:00pm 20.2 17.3 15.2 73 2.9 S 24 32 13 17 1021.4 - 0.0
18/12:30pm 20.2 17.8 15.4 74 2.8 S 22 28 12 15 1021.6 - 0.0
18/12:00pm 20.6 17.9 15.6 73 3.0 S 24 32 13 17 1022.1 1022.0 0.0
18/11:30am 20.5 17.7 14.4 68 3.6 S 22 30 12 16 1022.4 - 0.0
18/11:00am 21.5 19.0 15.1 67 3.8 S 22 28 12 15 1022.4 - 0.0
18/10:30am 20.7 18.4 14.1 66 3.8 S 19 26 10 14 1022.5 - 0.0
18/10:00am 20.4 17.9 13.6 65 3.9 S 19 26 10 14 1022.5 - 0.0
18/09:30am 20.4 18.4 13.8 66 3.8 SSW 17 22 9 12 1022.6 - 0.0
18/09:00am 19.4 17.1 13.1 67 3.6 SSW 17 20 9 11 1022.6 1022.5 0.0
18/08:30am 17.8 18.3 12.7 72 2.8 SW 2 6 1 3 1022.5 - 0.0
18/08:00am 15.3 14.8 12.1 81 1.7 NW 6 7 3 4 1022.2 - 0.0
18/07:30am 13.0 11.7 11.4 90 0.8 N 9 9 5 5 1021.8 - 0.0
18/07:00am 11.8 10.8 10.4 91 0.7 NW 6 7 3 4 1021.4 - 0.0
18/06:30am 12.2 10.7 10.6 90 0.8 NNW 9 11 5 6 1021.2 - 0.0
18/06:00am 12.8 12.0 11.2 90 0.8 NW 6 9 3 5 1020.9 1020.8 0.0
18/05:30am 12.9 11.6 11.1 89 0.9 NW 9 11 5 6 1020.8 - 0.0
18/05:00am 13.1 11.8 11.3 89 1.0 WNW 9 11 5 6 1020.7 - 0.0
18/04:30am 12.3 11.2 10.7 90 0.8 NW 7 9 4 5 1020.4 - 0.0
18/04:00am 12.6 11.2 11.0 90 0.8 WNW 9 9 5 5 1020.2 - 0.0
18/03:30am 14.0 12.1 11.7 86 1.2 WSW 13 13 7 7 1020.2 - 0.0
18/03:00am 14.9 13.1 12.0 83 1.6 WSW 13 17 7 9 1020.1 1020.0 0.0
18/02:30am 14.5 12.9 11.5 82 1.6 WSW 11 13 6 7 1020.0 - 0.0
18/02:00am 15.7 14.5 11.7 77 2.2 WSW 9 13 5 7 1020.1 - 0.0
18/01:30am 15.3 13.6 11.3 77 2.1 WSW 11 15 6 8 1020.4 - 0.0
18/01:00am 15.5 13.7 10.7 73 2.5 SW 11 15 6 8 1020.3 - 0.0
18/12:30am 16.1 15.0 10.8 71 2.8 W 7 13 4 7 1020.4 - 0.0
18/12:00am 16.8 15.5 11.1 69 3.1 WSW 9 13 5 7 1020.3 1020.2 0.0
 
Date/Time
CST
Temp
°C
App
Temp
°C
Dew
Point
Rel
Hum
%
Delta-T
°C
Wind Press
QNH
hPa
Press
MSL
hPa
Rain
since 9 am
mm
Dir
 
Spd
km/h
Gust
km/h
Spd
kts
Gust
kts
17/11:30pm 17.9 15.1 11.2 65 3.6 SW 17 22 9 12 1020.6 - 0.0
17/11:00pm 17.2 15.1 12.5 74 2.6 SW 15 19 8 10 1020.6 - 0.0
17/10:30pm 15.6 16.6 13.3 86 1.3 CALM 0 0 0 0 1020.5 - 0.0
17/10:00pm 15.8 15.8 13.5 86 1.3 NW 6 7 3 4 1020.4 - 0.0
17/09:30pm 16.1 15.3 13.9 87 1.2 WNW 11 13 6 7 1020.2 - 0.0
17/09:00pm 16.7 15.6 14.3 86 1.4 W 13 15 7 8 1019.9 1019.8 0.0
17/08:30pm 16.5 15.8 14.2 86 1.3 W 11 15 6 8 1019.8 - 0.0
17/08:00pm 17.8 17.9 14.5 81 1.9 SSW 7 9 4 5 1019.4 - 0.0
17/07:30pm 18.6 17.6 14.7 78 2.3 S 13 17 7 9 1019.2 - 0.0
17/07:00pm 20.6 20.2 12.3 59 4.7 NNE 6 7 3 4 1018.8 - 0.0
17/06:30pm 21.7 20.8 12.5 56 5.2 NE 9 13 5 7 1018.4 - 0.0
17/06:00pm 21.3 19.8 13.0 59 4.7 ENE 13 17 7 9 1018.2 1018.1 0.0
17/05:30pm 22.9 21.3 12.8 53 5.8 ENE 13 17 7 9 1018.0 - 0.0
17/05:00pm 23.3 21.9 13.5 54 5.7 ENE 13 19 7 10 1017.9 - 0.0
17/04:30pm 23.2 21.5 13.7 55 5.5 E 15 20 8 11 1018.1 - 0.0
17/04:00pm 22.9 20.4 13.4 55 5.5 E 19 22 10 12 1018.2 - 0.0
17/03:30pm 22.9 20.4 13.4 55 5.5 E 19 22 10 12 1018.5 - 0.0
17/03:00pm 22.9 20.6 13.1 54 5.6 E 17 20 9 11 1018.7 1018.6 0.0
17/02:30pm 23.0 21.1 12.9 53 5.8 E 15 19 8 10 1019.0 - 0.0
17/02:00pm 22.7 20.0 11.7 49 6.2 ESE 17 20 9 11 1019.1 - 0.0
17/01:30pm 22.6 20.6 12.8 54 5.6 E 15 19 8 10 1019.5 - 0.0
17/01:00pm 22.6 20.9 12.3 52 5.8 ESE 13 17 7 9 1019.8 - 0.0
17/12:30pm 22.7 21.1 11.7 49 6.2 ESE 11 17 6 9 1020.4 - 0.0
17/12:00pm 22.7 20.6 11.1 48 6.4 E 13 17 7 9 1020.8 1020.7 0.0
17/11:30am 23.2 22.7 12.2 50 6.2 NW 6 13 3 7 1021.0 - 0.0
17/11:00am 22.3 21.7 11.7 51 5.9 ENE 6 9 3 5 1021.4 - 0.0
17/10:30am 20.9 20.7 11.8 56 5.1 NE 4 9 2 5 1021.5 - 0.0
17/10:00am 20.0 20.1 12.7 63 4.1 SE 4 9 2 5 1021.6 - 0.0
17/09:30am 19.6 20.1 12.8 65 3.8 S 2 7 1 4 1021.6 - 0.0
17/09:00am 17.9 19.5 14.8 82 1.8 CALM 0 0 0 0 1021.6 1021.5 0.2
17/08:30am 16.5 17.5 14.2 86 1.3 WNW 2 6 1 3 1021.5 - 0.2
17/08:00am 14.1 13.7 13.0 93 0.6 NW 7 7 4 4 1021.3 - 0.2
17/07:30am 12.2 10.9 11.4 95 0.4 NW 9 13 5 7 1021.0 - 0.2
17/07:00am 10.4 8.7 9.8 96 0.3 NNW 9 11 5 6 1020.6 - 0.2
17/06:30am 10.2 8.4 9.6 96 0.3 NW 9 9 5 5 1020.5 - 0.2
17/06:00am 10.2 8.8 9.4 95 0.4 NW 7 9 4 5 1020.4 1020.3 0.2
17/05:30am 10.5 8.8 9.7 95 0.4 NW 9 11 5 6 1020.2 - 0.2
17/05:00am 10.5 8.7 9.6 94 0.5 NW 9 11 5 6 1019.9 - 0.2
17/04:30am 10.5 8.7 9.4 93 0.5 W 9 11 5 6 1019.8 - 0.2
17/04:00am 10.9 9.5 9.7 92 0.6 NW 7 9 4 5 1019.7 - 0.2
17/03:30am 11.1 9.9 9.5 90 0.8 W 6 7 3 4 1019.7 - 0.2
17/03:00am 11.5 10.1 9.4 87 1.1 W 7 9 4 5 1019.7 1019.6 0.2
17/02:30am 11.5 10.1 9.4 87 1.1 W 7 7 4 4 1019.8 - 0.2
17/02:00am 11.8 10.6 9.5 86 1.2 W 6 7 3 4 1020.0 - 0.2
17/01:30am 12.2 11.1 9.8 85 1.2 W 6 7 3 4 1020.1 - 0.2
17/01:00am 12.7 11.6 10.1 84 1.3 WSW 6 7 3 4 1020.2 - 0.2
17/12:30am 12.6 12.0 10.3 86 1.2 N 4 6 2 3 1020.2 - 0.2
17/12:00am 12.8 13.0 10.5 86 1.2 CALM 0 0 0 0 1020.2 1020.1 0.2
 
Date/Time
CST
Temp
°C
App
Temp
°C
Dew
Point
Rel
Hum
%
Delta-T
°C
Wind Press
QNH
hPa
Press
MSL
hPa
Rain
since 9 am
mm
Dir
 
Spd
km/h
Gust
km/h
Spd
kts
Gust
kts
16/11:30pm 13.7 13.2 10.9 83 1.5 W 4 6 2 3 1020.3 - 0.2
16/11:00pm 14.0 13.7 11.3 84 1.4 W 4 6 2 3 1020.5 - 0.2
16/10:30pm 14.5 13.9 11.8 84 1.5 W 6 6 3 3 1020.4 - 0.2
16/10:00pm 15.2 14.7 12.1 82 1.7 WSW 6 6 3 3 1020.3 - 0.2
16/09:30pm 15.5 14.5 12.4 82 1.7 SW 9 11 5 6 1020.2 - 0.2
16/09:00pm 15.8 14.9 12.7 82 1.7 SW 9 11 5 6 1019.9 1019.8 0.2
16/08:30pm 15.8 15.1 13.1 84 1.5 SW 9 9 5 5 1019.8 - 0.2
16/08:00pm 16.2 14.0 13.3 83 1.6 SSW 17 20 9 11 1019.7 - 0.2
16/07:30pm 17.5 17.6 14.0 80 2.0 E 6 7 3 4 1019.2 - 0.2
16/07:00pm 18.2 18.6 14.7 80 2.0 SE 6 6 3 3 1019.0 - 0.2
16/06:30pm 18.8 19.0 14.7 77 2.4 SE 7 7 4 4 1018.9 - 0.2
16/06:00pm 19.8 19.6 14.6 72 3.0 E 9 13 5 7 1018.6 1018.5 0.2
16/05:30pm 20.7 19.2 14.1 66 3.8 E 15 19 8 10 1018.5 - 0.2

Other Formats:

Comma delimited format used in spreadsheet applications
http://www.bom.gov.au/fwo/IDS60801/IDS60801.95664.axf

JavaScript Object Notation format (JSON) in row-major order
http://www.bom.gov.au/fwo/IDS60801/IDS60801.95664.json